Time;durP1;ratioP1;P1;durP2;ratioP2;P2;SDS_P1;SDS_P2;PMS_P1;PMS_P2;Temp;Humidity;BMP_temperature;BMP_pressure;BME280_temperature;BME280_humidity;BME280_pressure;Samples;Min_cycle;Max_cycle;Signal;HPM_P1;HPM_P2
2022/08/03 00:01:43;;;;;;;9.98;1.27;;;20.10;99.90;;;;;;4963166;28;20050;-86
2022/08/03 00:04:10;;;;;;;6.47;1.27;;;20.00;99.90;;;;;;4964125;28;20050;-85
2022/08/03 00:06:36;;;;;;;3.97;1.63;;;20.00;99.90;;;;;;4964139;28;20486;-86
2022/08/03 00:09:05;;;;;;;8.75;1.52;;;20.00;99.90;;;;;;4946504;28;20050;-86
2022/08/03 00:11:31;;;;;;;4.70;1.20;;;20.80;99.90;;;;;;4964442;28;20043;-86
2022/08/03 00:13:57;;;;;;;4.63;0.80;;;20.00;99.90;;;;;;4962199;28;20100;-86
2022/08/03 00:16:26;;;;;;;5.97;1.30;;;19.90;99.90;;;;;;4964527;28;20051;-86
2022/08/03 00:18:51;;;;;;;6.55;1.25;;;19.90;99.90;;;;;;4931588;28;20043;-86
2022/08/03 00:21:17;;;;;;;10.15;1.70;;;19.90;99.90;;;;;;4947702;28;20116;-86
2022/08/03 00:23:43;;;;;;;8.48;2.40;;;19.90;99.90;;;;;;4947960;28;20130;-85
2022/08/03 00:26:09;;;;;;;4.25;1.38;;;19.90;99.90;;;;;;4946664;28;20047;-86
2022/08/03 00:28:34;;;;;;;6.10;1.25;;;19.80;99.90;;;;;;4947935;28;20055;-86
2022/08/03 00:31:00;;;;;;;6.65;1.63;;;19.80;99.90;;;;;;4946161;28;20413;-87
2022/08/03 00:33:26;;;;;;;7.35;1.30;;;19.80;99.90;;;;;;4964496;28;20065;-87
2022/08/03 00:35:52;;;;;;;7.88;1.17;;;19.80;99.90;;;;;;4962909;28;20046;-86
2022/08/03 00:38:18;;;;;;;9.52;1.33;;;19.80;99.90;;;;;;4947793;28;20043;-87
2022/08/03 00:40:44;;;;;;;5.07;1.02;;;19.80;99.90;;;;;;4947642;28;20047;-86
2022/08/03 00:43:10;;;;;;;6.57;1.15;;;19.80;99.90;;;;;;4930327;28;20134;-86
2022/08/03 00:45:39;;;;;;;5.10;1.17;;;19.70;99.90;;;;;;4964008;28;20082;-85
2022/08/03 00:48:07;;;;;;;8.85;1.75;;;19.80;99.90;;;;;;4946481;28;20383;-86
2022/08/03 00:50:39;;;;;;;5.40;1.20;;;19.70;99.90;;;;;;4963615;28;20069;-87
2022/08/03 00:53:06;;;;;;;6.82;1.40;;;19.70;99.90;;;;;;4962685;28;20047;-86
2022/08/03 00:55:32;;;;;;;4.45;1.23;;;19.70;99.90;;;;;;4947455;28;20061;-85
2022/08/03 00:58:00;;;;;;;7.32;1.65;;;19.70;99.90;;;;;;4947288;28;20502;-86
2022/08/03 01:00:26;;;;;;;4.70;1.77;;;19.70;99.90;;;;;;4946273;28;20576;-85
2022/08/03 01:02:53;;;;;;;6.15;1.52;;;19.70;99.90;;;;;;4931805;28;20521;-86
2022/08/03 01:05:20;;;;;;;5.43;1.25;;;19.70;99.90;;;;;;4945929;28;20039;-86
2022/08/03 01:08:11;;;;;;;7.80;1.73;;;19.70;99.90;;;;;;4947688;28;20039;-85
2022/08/03 01:11:05;;;;;;;10.60;2.70;;;19.70;99.90;;;;;;4947010;28;20047;-86
2022/08/03 01:13:47;;;;;;;7.70;1.42;;;19.60;99.90;;;;;;4945923;28;20402;-85
2022/08/03 01:16:39;;;;;;;5.07;1.10;;;19.60;99.90;;;;;;4963857;28;20070;-86
2022/08/03 01:19:10;;;;;;;5.03;1.67;;;19.60;99.90;;;;;;4950370;28;20055;-86
2022/08/03 01:22:07;;;;;;;6.50;1.20;;;19.60;99.90;;;;;;4946351;28;20047;-86
2022/08/03 01:25:31;;;;;;;7.45;1.30;;;19.60;99.90;;;;;;4963141;28;20305;-86
2022/08/03 01:28:20;;;;;;;6.60;1.70;;;19.60;99.90;;;;;;4995938;28;20473;-85
2022/08/03 01:30:47;;;;;;;5.22;1.00;;;19.60;99.90;;;;;;4945485;28;20418;-86
2022/08/03 01:33:19;;;;;;;5.35;1.08;;;19.70;99.90;;;;;;4947107;28;20140;-86
2022/08/03 01:35:53;;;;;;;5.47;1.40;;;19.50;99.90;;;;;;4962383;28;20047;-86
2022/08/03 01:38:27;;;;;;;6.85;1.23;;;19.50;99.90;;;;;;4962746;28;20121;-85
2022/08/03 01:40:54;;;;;;;8.45;1.27;;;19.50;99.90;;;;;;4963428;28;20494;-86
2022/08/03 01:43:26;;;;;;;6.00;1.77;;;19.50;99.90;;;;;;4945299;28;20448;-86
2022/08/03 01:45:54;;;;;;;;;;;19.50;99.90;;;;;;4963789;28;20465;-86
2022/08/03 01:48:20;;;;;;;2.53;1.00;;;19.50;99.90;;;;;;4945382;28;19923;-86
2022/08/03 01:50:48;;;;;;;6.00;1.08;;;19.50;99.90;;;;;;4950195;28;20181;-85
2022/08/03 01:53:15;;;;;;;5.53;1.67;;;19.40;99.90;;;;;;4982439;28;20440;-86
2022/08/03 01:55:47;;;;;;;8.77;0.82;;;19.40;99.90;;;;;;4965166;28;20038;-85
2022/08/03 01:58:15;;;;;;;4.00;1.03;;;19.40;99.90;;;;;;4950337;28;20043;-87
2022/08/03 02:00:42;;;;;;;7.15;1.52;;;19.40;99.90;;;;;;4948270;28;20039;-85
2022/08/03 02:03:11;;;;;;;6.10;1.15;;;19.40;99.90;;;;;;4965933;28;20050;-85
2022/08/03 02:05:39;;;;;;;4.40;1.20;;;19.40;99.90;;;;;;4981566;28;20458;-85
2022/08/03 02:08:07;;;;;;;5.80;1.08;;;19.30;99.90;;;;;;4950053;28;20466;-87
2022/08/03 02:10:35;;;;;;;7.43;0.98;;;19.30;99.90;;;;;;4949736;28;20043;-86
2022/08/03 02:13:02;;;;;;;6.07;1.05;;;19.30;99.90;;;;;;4948984;28;20501;-85
2022/08/03 02:15:30;;;;;;;5.28;1.33;;;19.20;99.90;;;;;;4966407;28;20443;-86
2022/08/03 02:17:57;;;;;;;6.25;1.35;;;19.20;99.90;;;;;;4948114;28;20093;-85
2022/08/03 02:20:23;;;;;;;3.30;0.93;;;19.20;99.90;;;;;;4949915;28;20482;-86
2022/08/03 02:22:49;;;;;;;9.95;1.35;;;19.10;99.90;;;;;;4964805;28;20116;-86
2022/08/03 02:25:15;;;;;;;7.28;1.58;;;19.10;99.90;;;;;;4965701;28;20134;-86
2022/08/03 02:27:54;;;;;;;8.45;0.98;;;19.10;99.90;;;;;;4965672;28;20047;-86
2022/08/03 02:30:22;;;;;;;6.68;1.67;;;19.10;99.90;;;;;;4964047;28;20514;-86
2022/08/03 02:32:54;;;;;;;3.85;1.08;;;19.10;99.90;;;;;;4949875;28;20477;-86
2022/08/03 02:35:21;;;;;;;7.13;1.02;;;19.10;99.90;;;;;;4964000;28;20161;-86
2022/08/03 02:37:50;;;;;;;4.28;1.10;;;19.10;99.90;;;;;;4965540;28;20055;-85
2022/08/03 02:40:19;;;;;;;5.78;0.90;;;19.10;99.90;;;;;;4949531;28;20112;-85
2022/08/03 02:42:47;;;;;;;4.78;1.40;;;19.10;99.90;;;;;;4964455;28;20042;-85
2022/08/03 02:45:15;;;;;;;1.80;0.75;;;19.00;99.90;;;;;;4965659;28;20082;-86
2022/08/03 02:47:42;;;;;;;8.27;1.38;;;19.00;99.90;;;;;;4947908;28;20420;-85
2022/08/03 02:50:11;;;;;;;5.32;1.08;;;19.00;99.90;;;;;;4933190;28;20459;-85
2022/08/03 02:52:38;;;;;;;6.45;1.58;;;19.00;99.90;;;;;;4947615;28;20146;-85
2022/08/03 02:55:06;;;;;;;8.18;1.23;;;19.00;99.90;;;;;;4949021;28;20513;-86
2022/08/03 02:57:35;;;;;;;5.13;1.17;;;19.00;99.90;;;;;;4964177;28;20086;-85
2022/08/03 03:00:01;;;;;;;4.93;1.25;;;19.00;99.90;;;;;;4946597;28;20043;-86
2022/08/03 03:02:27;;;;;;;5.35;1.67;;;19.00;99.90;;;;;;4949081;28;20123;-85
2022/08/03 03:04:54;;;;;;;8.43;1.42;;;19.00;99.90;;;;;;4947368;28;20046;-87
2022/08/03 03:07:21;;;;;;;5.07;1.65;;;19.00;99.90;;;;;;4949596;28;20117;-86
2022/08/03 03:09:47;;;;;;;8.15;2.05;;;19.00;99.90;;;;;;4947656;28;20164;-85
2022/08/03 03:12:14;;;;;;;8.70;1.60;;;18.90;99.90;;;;;;4934474;28;20061;-85
2022/08/03 03:14:40;;;;;;;11.43;1.15;;;19.00;99.90;;;;;;4932934;28;20452;-85
2022/08/03 03:17:08;;;;;;;5.05;1.23;;;18.90;99.90;;;;;;4963762;28;20086;-85
2022/08/03 03:19:38;;;;;;;6.18;1.40;;;18.90;99.90;;;;;;4949391;28;20050;-85
2022/08/03 03:22:06;;;;;;;5.32;1.13;;;18.90;99.90;;;;;;4947367;28;20410;-85
2022/08/03 03:24:33;;;;;;;12.25;1.38;;;18.90;99.90;;;;;;4964769;28;20046;-86
2022/08/03 03:27:04;;;;;;;5.97;1.35;;;18.90;99.90;;;;;;4965467;28;20440;-85
2022/08/03 03:29:31;;;;;;;6.47;1.48;;;18.90;99.90;;;;;;4982515;28;20464;-85
2022/08/03 03:31:56;;;;;;;12.18;1.50;;;18.80;99.90;;;;;;4949864;28;20054;-85
2022/08/03 03:34:22;;;;;;;9.05;1.65;;;18.80;99.90;;;;;;4931671;28;20121;-86
2022/08/03 03:36:48;;;;;;;9.35;1.88;;;18.00;99.90;;;;;;4949040;28;20511;-85
2022/08/03 03:39:14;;;;;;;6.95;1.55;;;18.80;99.90;;;;;;4962602;28;20184;-85
2022/08/03 03:41:40;;;;;;;8.07;1.50;;;18.80;99.90;;;;;;4948490;28;20207;-85
2022/08/03 03:44:05;;;;;;;7.43;1.48;;;18.80;99.90;;;;;;4931660;28;20049;-85
2022/08/03 03:46:31;;;;;;;8.10;1.70;;;18.80;99.90;;;;;;4948203;28;20409;-85
2022/08/03 03:48:57;;;;;;;9.57;1.55;;;18.80;99.90;;;;;;4948542;28;20059;-86
2022/08/03 03:51:23;;;;;;;6.78;1.35;;;18.70;99.90;;;;;;4947007;28;20060;-86
2022/08/03 03:53:59;;;;;;;7.20;1.50;;;18.80;99.90;;;;;;4964207;28;20047;-86
2022/08/03 03:56:26;;;;;;;4.60;1.63;;;18.80;99.90;;;;;;4962446;28;20058;-85
2022/08/03 03:58:52;;;;;;;3.45;1.13;;;18.70;99.90;;;;;;4948366;28;20135;-86
2022/08/03 04:01:18;;;;;;;4.88;1.30;;;18.70;99.90;;;;;;4947286;28;20039;-86
2022/08/03 04:03:44;;;;;;;5.78;1.40;;;18.70;99.90;;;;;;4963808;28;20521;-86
2022/08/03 04:11:47;;;;;;;9.57;3.72;;;18.60;99.90;;;;;;4963624;28;20076;-85
2022/08/03 04:14:24;;;;;;;4.47;1.33;;;18.70;99.90;;;;;;4947521;28;20050;-86
2022/08/03 04:17:02;;;;;;;15.65;1.73;;;18.60;99.90;;;;;;4963895;28;20516;-86
2022/08/03 04:19:50;;;;;;;4.10;1.20;;;18.60;99.90;;;;;;4964302;28;20046;-85
2022/08/03 04:22:18;;;;;;;2.50;1.08;;;18.60;99.90;;;;;;4946017;28;20051;-85
2022/08/03 04:25:04;;;;;;;6.03;1.80;;;18.60;99.90;;;;;;4947902;28;20046;-85
2022/08/03 04:27:35;;;;;;;4.15;1.63;;;18.60;99.90;;;;;;4948233;28;20495;-85
2022/08/03 04:30:04;;;;;;;4.60;1.52;;;18.60;99.90;;;;;;4962391;28;20689;-85
2022/08/03 04:32:30;;;;;;;12.27;1.25;;;18.60;99.90;;;;;;4965192;28;20047;-85
2022/08/03 04:34:56;;;;;;;7.75;2.42;;;18.60;99.90;;;;;;4946270;28;20103;-85
2022/08/03 04:37:40;;;;;;;8.27;1.80;;;18.60;99.90;;;;;;4947883;28;20520;-85
2022/08/03 04:40:10;;;;;;;10.50;1.80;;;18.60;99.90;;;;;;4963097;28;20533;-85
2022/08/03 04:42:39;;;;;;;9.02;1.75;;;18.60;99.90;;;;;;4963271;28;20046;-85
2022/08/03 04:45:06;;;;;;;5.78;2.03;;;18.60;99.90;;;;;;4947823;28;20122;-85
2022/08/03 04:47:33;;;;;;;7.95;2.00;;;18.60;99.90;;;;;;4930078;28;20043;-86
2022/08/03 04:50:03;;;;;;;11.50;1.80;;;18.60;99.90;;;;;;4947732;28;20043;-85
2022/08/03 04:52:29;;;;;;;7.85;2.15;;;18.70;99.90;;;;;;4962079;28;20055;-83
2022/08/03 04:54:56;;;;;;;4.57;1.60;;;18.70;99.90;;;;;;4947436;28;20184;-84
2022/08/03 04:57:22;;;;;;;6.60;1.80;;;18.70;99.90;;;;;;4932001;28;20050;-85
2022/08/03 04:59:51;;;;;;;5.78;1.38;;;18.70;99.90;;;;;;4962586;28;20043;-85
2022/08/03 05:02:17;;;;;;;5.75;1.60;;;18.70;99.90;;;;;;4963602;28;20131;-85
2022/08/03 05:04:45;;;;;;;9.90;2.70;;;18.80;99.90;;;;;;4945492;28;20051;-85
2022/08/03 05:07:12;;;;;;;12.95;1.73;;;18.80;99.90;;;;;;4947939;28;20065;-84
2022/08/03 05:09:37;;;;;;;6.90;1.67;;;18.80;99.90;;;;;;4929950;28;20163;-83
2022/08/03 05:12:04;;;;;;;9.95;2.08;;;18.80;99.90;;;;;;4947207;28;20291;-85
2022/08/03 05:14:30;;;;;;;5.43;1.75;;;18.90;99.90;;;;;;4963155;28;20050;-84
2022/08/03 05:16:56;;;;;;;6.20;1.27;;;18.90;99.90;;;;;;4946479;28;20062;-82
2022/08/03 05:19:21;;;;;;;9.30;2.30;;;19.00;99.90;;;;;;4947555;28;20046;-81
2022/08/03 05:21:47;;;;;;;7.80;2.60;;;19.00;99.90;;;;;;4945505;28;20484;-82
2022/08/03 05:24:12;;;;;;;9.05;2.55;;;19.00;99.90;;;;;;4964913;28;20050;-81
2022/08/03 05:26:38;;;;;;;8.38;1.40;;;19.10;99.90;;;;;;4981315;28;20100;-82
2022/08/03 05:29:04;;;;;;;6.07;1.58;;;19.10;99.90;;;;;;4934881;28;20444;-82
2022/08/03 05:31:29;;;;;;;8.23;1.85;;;19.10;99.90;;;;;;4965909;28;20061;-80
2022/08/03 05:33:56;;;;;;;6.78;1.55;;;19.20;99.90;;;;;;4965769;28;20042;-81
2022/08/03 05:36:22;;;;;;;5.35;1.85;;;19.20;99.90;;;;;;4950381;28;20093;-84
2022/08/03 05:38:47;;;;;;;7.70;1.63;;;19.30;99.90;;;;;;4964983;28;20047;-84
2022/08/03 05:41:13;;;;;;;9.73;1.90;;;19.40;99.90;;;;;;4982918;28;20409;-83
2022/08/03 05:43:39;;;;;;;8.88;2.17;;;19.40;99.90;;;;;;4948348;28;20081;-83
2022/08/03 05:46:04;;;;;;;8.00;1.73;;;19.50;99.90;;;;;;4966608;28;20104;-83
2022/08/03 05:48:30;;;;;;;7.05;1.70;;;19.50;99.90;;;;;;4981944;28;20082;-83
2022/08/03 05:50:56;;;;;;;9.32;1.98;;;19.50;99.90;;;;;;4949431;28;20097;-83
2022/08/03 05:53:21;;;;;;;11.85;2.05;;;19.60;99.90;;;;;;4950164;28;20058;-85
2022/08/03 05:55:47;;;;;;;11.23;2.47;;;19.60;99.90;;;;;;4932790;28;20136;-86
2022/08/03 05:58:12;;;;;;;7.68;1.92;;;19.70;99.90;;;;;;4950296;28;20101;-84
2022/08/03 06:00:38;;;;;;;9.23;1.88;;;19.70;99.90;;;;;;4964218;28;20050;-85
2022/08/03 06:03:04;;;;;;;12.43;2.10;;;19.80;99.90;;;;;;4966037;28;20043;-85
2022/08/03 06:05:30;;;;;;;7.80;2.00;;;19.80;99.90;;;;;;4933341;28;20114;-84
2022/08/03 06:07:56;;;;;;;9.45;2.67;;;19.90;99.90;;;;;;4933715;28;20042;-84
2022/08/03 06:10:21;;;;;;;8.77;1.80;;;20.00;99.90;;;;;;4949865;28;20050;-84
2022/08/03 06:12:48;;;;;;;5.60;1.65;;;20.00;99.90;;;;;;4964532;28;20077;-84
2022/08/03 06:15:14;;;;;;;7.57;1.50;;;20.10;99.90;;;;;;4934812;28;20092;-85
2022/08/03 06:17:48;;;;;;;10.82;1.67;;;20.10;99.90;;;;;;4964630;28;20043;-85
2022/08/03 06:20:18;;;;;;;9.65;1.60;;;20.20;99.90;;;;;;4935675;28;20050;-84
2022/08/03 06:22:48;;;;;;;6.82;1.85;;;20.30;99.90;;;;;;4975137;28;20058;-85
2022/08/03 06:25:13;;;;;;;8.40;2.10;;;20.30;99.90;;;;;;4977329;28;20057;-85
2022/08/03 06:27:39;;;;;;;12.05;2.00;;;20.40;99.90;;;;;;4980432;28;20125;-85
2022/08/03 06:30:10;;;;;;;6.25;1.75;;;20.50;99.90;;;;;;4966715;28;20043;-85
2022/08/03 06:32:39;;;;;;;12.93;2.08;;;20.50;99.90;;;;;;4950744;28;20035;-84
2022/08/03 06:35:06;;;;;;;8.75;2.25;;;20.60;99.90;;;;;;4984883;28;20773;-85
2022/08/03 06:37:43;;;;;;;9.60;1.58;;;20.70;99.90;;;;;;4969009;28;20041;-85
2022/08/03 06:40:10;;;;;;;17.10;2.08;;;20.70;99.90;;;;;;4986646;28;20098;-85
2022/08/03 06:42:36;;;;;;;10.00;2.03;;;20.80;99.90;;;;;;4972530;28;20047;-85
2022/08/03 06:45:02;;;;;;;11.80;2.00;;;20.90;99.90;;;;;;4990211;28;20060;-85
2022/08/03 06:47:28;;;;;;;8.82;1.73;;;20.90;99.90;;;;;;4988013;28;20490;-84
2022/08/03 06:49:54;;;;;;;14.43;2.53;;;21.00;99.90;;;;;;4990418;28;20069;-85
2022/08/03 06:52:19;;;;;;;9.38;2.45;;;21.10;99.90;;;;;;4971997;28;20575;-86
2022/08/03 06:54:45;;;;;;;14.65;2.83;;;21.10;99.90;;;;;;4974024;28;20047;-86
2022/08/03 06:57:11;;;;;;;10.63;2.08;;;21.20;99.90;;;;;;4973646;28;20026;-86
2022/08/03 06:59:37;;;;;;;10.23;1.70;;;21.30;99.90;;;;;;4988658;28;20031;-86
2022/08/03 07:02:03;;;;;;;4.95;1.48;;;21.30;99.90;;;;;;4965885;28;20050;-85
2022/08/03 07:04:29;;;;;;;10.20;2.08;;;21.50;99.90;;;;;;4965653;28;20043;-85
2022/08/03 07:06:55;;;;;;;8.65;1.73;;;21.60;99.90;;;;;;4950642;28;20051;-84
2022/08/03 07:09:21;;;;;;;8.15;2.47;;;21.60;99.90;;;;;;4948914;28;20043;-86
2022/08/03 07:11:47;;;;;;;7.15;1.73;;;21.40;99.90;;;;;;4966596;28;20050;-86
2022/08/03 07:14:12;;;;;;;6.63;2.05;;;21.80;99.90;;;;;;4966087;28;20134;-87
2022/08/03 07:16:38;;;;;;;10.65;2.58;;;21.90;99.90;;;;;;4949145;28;20047;-87
2022/08/03 07:19:04;;;;;;;9.25;2.38;;;21.90;99.90;;;;;;4950382;28;20042;-86
2022/08/03 07:21:29;;;;;;;11.43;1.88;;;22.00;99.90;;;;;;4963894;28;20125;-85
2022/08/03 07:23:55;;;;;;;7.68;2.20;;;22.00;99.90;;;;;;4965543;28;20042;-84
2022/08/03 07:26:21;;;;;;;7.50;1.67;;;22.10;99.90;;;;;;4947465;28;20092;-86
2022/08/03 07:28:46;;;;;;;9.65;1.98;;;22.20;99.90;;;;;;4949658;28;20129;-85
2022/08/03 07:31:12;;;;;;;11.45;2.03;;;22.20;99.90;;;;;;4947956;28;20105;-84
2022/08/03 07:33:38;;;;;;;9.70;1.98;;;22.30;99.90;;;;;;4932200;28;20053;-85
2022/08/03 07:36:04;;;;;;;8.18;2.15;;;22.40;99.90;;;;;;4949017;28;20073;-81
2022/08/03 07:38:29;;;;;;;7.22;1.77;;;22.50;99.90;;;;;;4947595;28;20058;-81
2022/08/03 07:40:55;;;;;;;8.00;1.60;;;22.60;99.90;;;;;;4948975;28;20450;-81
2022/08/03 07:43:21;;;;;;;12.38;1.95;;;22.70;99.90;;;;;;4963564;28;20058;-82
2022/08/03 07:45:47;;;;;;;7.68;1.98;;;23.30;99.90;;;;;;4948319;28;20043;-81
2022/08/03 07:48:12;;;;;;;7.47;1.70;;;22.80;99.90;;;;;;4947008;28;20046;-81
2022/08/03 07:50:39;;;;;;;14.50;2.33;;;22.80;99.90;;;;;;4948370;28;20046;-81
2022/08/03 07:53:04;;;;;;;8.25;1.80;;;22.90;99.90;;;;;;4964621;28;20058;-81
2022/08/03 07:55:30;;;;;;;9.77;2.28;;;22.90;99.90;;;;;;4962917;28;20046;-81
2022/08/03 07:58:08;;;;;;;14.57;2.72;;;23.00;99.90;;;;;;4932503;28;20049;-81
2022/08/03 08:00:34;;;;;;;5.47;1.98;;;23.00;99.90;;;;;;4947003;28;20476;-82
2022/08/03 08:03:00;;;;;;;11.70;2.22;;;23.10;99.90;;;;;;4964885;28;20515;-80
2022/08/03 08:05:28;;;;;;;6.63;1.45;;;23.20;99.90;;;;;;4964982;28;20043;-81
2022/08/03 08:07:57;;;;;;;13.10;2.28;;;23.30;99.90;;;;;;4963965;28;20559;-82
2022/08/03 08:10:23;;;;;;;8.23;2.28;;;23.40;99.90;;;;;;4948366;28;20057;-80
2022/08/03 08:12:48;;;;;;;12.40;2.13;;;23.40;99.90;;;;;;4946437;28;20163;-82
2022/08/03 08:15:14;;;;;;;9.23;3.05;;;23.50;99.90;;;;;;4948539;28;20042;-80
2022/08/03 08:17:52;;;;;;;8.05;2.38;;;23.50;99.90;;;;;;4962855;28;20039;-82
2022/08/03 08:20:21;;;;;;;9.23;2.20;;;23.50;99.90;;;;;;4964351;28;20055;-81
2022/08/03 08:22:47;;;;;;;6.50;2.08;;;23.60;99.90;;;;;;4947613;28;20638;-80
2022/08/03 08:25:12;;;;;;;6.88;2.17;;;23.70;99.90;;;;;;4962873;28;20129;-80
2022/08/03 08:27:47;;;;;;;10.18;2.10;;;23.80;99.90;;;;;;4947922;28;20103;-80
2022/08/03 08:30:14;;;;;;;12.60;2.92;;;24.00;99.90;;;;;;4962294;28;20498;-80
2022/08/03 08:32:40;;;;;;;10.57;2.33;;;24.00;99.90;;;;;;4948036;28;20057;-80
2022/08/03 08:35:07;;;;;;;11.13;2.10;;;24.20;99.90;;;;;;4946181;28;20043;-81
2022/08/03 08:37:33;;;;;;;9.45;2.03;;;24.20;99.90;;;;;;4964197;28;20054;-81
2022/08/03 08:39:59;;;;;;;8.63;2.03;;;24.30;99.90;;;;;;4964145;28;20058;-82
2022/08/03 08:42:25;;;;;;;11.65;2.60;;;24.40;99.90;;;;;;4962713;28;20085;-83
2022/08/03 08:44:51;;;;;;;10.77;2.80;;;24.50;99.90;;;;;;4963744;28;20043;-82
2022/08/03 08:47:23;;;;;;;14.75;1.70;;;24.60;99.90;;;;;;4945560;28;20047;-81
2022/08/03 08:49:52;;;;;;;7.53;2.38;;;24.60;99.90;;;;;;4932137;28;20093;-82
2022/08/03 08:52:22;;;;;;;7.80;2.03;;;24.70;99.90;;;;;;4946323;28;20081;-82
2022/08/03 08:54:49;;;;;;;8.10;2.10;;;24.70;99.90;;;;;;4963366;28;20043;-81
2022/08/03 08:57:16;;;;;;;7.53;2.38;;;24.70;99.90;;;;;;4963610;28;20049;-80
2022/08/03 08:59:42;;;;;;;6.18;2.08;;;24.70;99.90;;;;;;4964355;28;20054;-82
2022/08/03 09:02:09;;;;;;;7.05;1.80;;;24.80;99.90;;;;;;4935780;28;20092;-81
2022/08/03 09:04:37;;;;;;;5.90;2.35;;;24.80;99.90;;;;;;4949439;28;20046;-84
2022/08/03 09:07:03;;;;;;;11.95;2.40;;;24.80;99.90;;;;;;4935728;28;20054;-82
2022/08/03 09:09:30;;;;;;;8.90;1.88;;;24.90;99.90;;;;;;4949859;28;20047;-82
2022/08/03 09:11:55;;;;;;;6.57;1.50;;;25.00;99.90;;;;;;4966496;28;20097;-83
2022/08/03 09:14:22;;;;;;;8.23;1.90;;;25.10;99.90;;;;;;4966859;28;20039;-85
2022/08/03 09:17:00;;;;;;;10.98;2.72;;;25.30;99.90;;;;;;4965414;28;20047;-83
2022/08/03 09:19:26;;;;;;;7.75;2.13;;;25.30;99.90;;;;;;4966693;28;20111;-84
2022/08/03 09:22:12;;;;;;;3.75;2.30;;;25.30;99.90;;;;;;4948668;28;20084;-84
2022/08/03 09:24:59;;;;;;;9.65;2.72;;;25.50;99.90;;;;;;4951105;28;20058;-83
2022/08/03 09:27:25;;;;;;;6.72;1.88;;;25.60;99.90;;;;;;4966923;28;20117;-83
2022/08/03 09:29:52;;;;;;;10.65;1.75;;;25.80;99.90;;;;;;4965291;28;20556;-84
2022/08/03 09:32:23;;;;;;;7.18;1.77;;;25.90;99.90;;;;;;4950534;28;20078;-83
2022/08/03 09:34:50;;;;;;;7.80;1.77;;;25.90;99.90;;;;;;4949371;28;20061;-83
2022/08/03 09:37:18;;;;;;;10.23;2.50;;;25.90;99.90;;;;;;4966998;28;20436;-85
2022/08/03 09:39:46;;;;;;;11.00;2.78;;;26.00;99.90;;;;;;4965847;28;20497;-85
2022/08/03 09:42:17;;;;;;;7.50;2.03;;;26.00;99.90;;;;;;4965368;28;20039;-85
2022/08/03 09:44:48;;;;;;;7.53;2.13;;;26.00;99.90;;;;;;4950714;28;20501;-85
2022/08/03 09:47:27;;;;;;;10.05;2.92;;;26.00;99.90;;;;;;4964987;28;20555;-84
2022/08/03 09:50:01;;;;;;;7.03;2.00;;;26.00;99.90;;;;;;4966555;28;20042;-85
2022/08/03 09:52:32;;;;;;;5.72;1.88;;;26.10;99.90;;;;;;4949421;28;20424;-85
2022/08/03 09:54:59;;;;;;;6.70;2.55;;;26.20;99.90;;;;;;4965920;28;20047;-89
2022/08/03 09:57:26;;;;;;;9.27;2.00;;;26.20;99.90;;;;;;4950804;28;20050;-89
2022/08/03 10:00:02;;;;;;;6.68;1.90;;;26.30;99.90;;;;;;4965147;28;20093;-85
2022/08/03 10:02:27;;;;;;;9.75;2.78;;;26.40;99.90;;;;;;4950356;28;20046;-87
2022/08/03 10:04:53;;;;;;;13.55;3.38;;;26.50;99.90;;;;;;4981154;28;20042;-87
2022/08/03 10:07:21;;;;;;;7.63;2.35;;;26.60;99.90;;;;;;4950250;28;20046;-87
2022/08/03 10:10:13;;;;;;;10.68;2.72;;;26.60;99.90;;;;;;4933533;28;20054;-90
2022/08/03 10:12:41;;;;;;;8.50;2.30;;;26.70;99.90;;;;;;4982724;28;20106;-86
2022/08/03 10:15:09;;;;;;;8.68;2.33;;;26.70;99.90;;;;;;4966368;28;20043;-87
2022/08/03 10:17:34;;;;;;;6.00;2.00;;;26.70;99.90;;;;;;4948164;28;20047;-87
2022/08/03 10:20:01;;;;;;;8.68;2.65;;;26.70;99.90;;;;;;4966190;28;20050;-85
2022/08/03 10:22:32;;;;;;;9.70;2.20;;;26.90;99.90;;;;;;4949761;28;20058;-86
2022/08/03 10:25:11;;;;;;;10.88;2.33;;;27.00;99.90;;;;;;4949198;28;20039;-86
2022/08/03 10:27:40;;;;;;;5.90;2.20;;;27.10;99.90;;;;;;4950279;28;20076;-88
2022/08/03 10:30:08;;;;;;;7.15;1.88;;;27.10;99.90;;;;;;4948133;28;20489;-86
2022/08/03 10:32:43;;;;;;;11.50;2.28;;;27.20;99.90;;;;;;4950235;28;20548;-88
2022/08/03 10:35:15;;;;;;;9.05;2.05;;;27.20;99.90;;;;;;4948780;28;20047;-86
2022/08/03 10:37:43;;;;;;;7.25;1.92;;;27.30;99.90;;;;;;4965741;28;20051;-86
2022/08/03 10:40:15;;;;;;;7.97;2.08;;;27.40;99.90;;;;;;4949665;28;20047;-87
2022/08/03 10:42:43;;;;;;;8.20;2.00;;;27.50;99.90;;;;;;4947962;28;20046;-86
2022/08/03 10:45:18;;;;;;;10.38;2.20;;;27.60;99.90;;;;;;4949427;28;20043;-84
2022/08/03 10:47:48;;;;;;;9.18;2.72;;;27.70;99.90;;;;;;4964331;28;20046;-81
2022/08/03 10:50:16;;;;;;;10.35;2.90;;;27.70;99.90;;;;;;4949794;28;20051;-82
2022/08/03 10:53:00;;;;;;;15.10;2.58;;;27.90;99.90;;;;;;4966746;28;20070;-83
2022/08/03 10:58:37;;;;;;;14.23;2.80;;;27.90;99.90;;;;;;4966692;28;20051;-82
2022/08/03 11:01:08;;;;;;;12.27;2.35;;;28.00;99.90;;;;;;4964779;28;20047;-80
2022/08/03 11:03:54;;;;;;;10.63;2.20;;;27.90;99.90;;;;;;4932196;28;20047;-80
2022/08/03 11:06:23;;;;;;;9.18;2.45;;;27.80;99.90;;;;;;4949162;28;20052;-83
2022/08/03 11:09:09;;;;;;;14.02;3.08;;;28.00;99.90;;;;;;4948099;28;20064;-84
2022/08/03 11:11:37;;;;;;;11.75;2.55;;;28.10;99.90;;;;;;4936162;28;20107;-83
2022/08/03 11:14:06;;;;;;;7.25;3.13;;;28.20;99.90;;;;;;4933846;28;20066;-82
2022/08/03 11:16:38;;;;;;;8.02;2.13;;;28.40;99.90;;;;;;4948215;28;20055;-83
2022/08/03 11:19:10;;;;;;;10.75;3.15;;;28.50;99.90;;;;;;4965108;28;20062;-84
2022/08/03 11:21:51;;;;;;;13.20;2.75;;;28.40;99.90;;;;;;4946140;28;20047;-82
2022/08/03 11:24:35;;;;;;;12.68;3.10;;;28.40;99.90;;;;;;4949473;28;20058;-82
2022/08/03 11:27:13;;;;;;;12.15;2.88;;;28.30;99.90;;;;;;4964815;28;20059;-83
2022/08/03 11:30:10;;;;;;;8.20;3.30;;;28.40;99.90;;;;;;4947887;28;20108;-84
2022/08/03 11:32:39;;;;;;;13.13;3.47;;;28.50;99.90;;;;;;4965051;28;20093;-84
2022/08/03 11:35:22;;;;;;;16.33;3.17;;;28.60;99.90;;;;;;4964212;28;20395;-85
2022/08/03 11:37:57;;;;;;;12.50;3.53;;;28.80;99.90;;;;;;4964397;28;20078;-86
2022/08/03 11:40:32;;;;;;;9.65;3.13;;;28.90;99.90;;;;;;4949262;28;20054;-83
2022/08/03 11:42:58;;;;;;;18.20;3.92;;;28.90;99.90;;;;;;4963316;28;20127;-83
2022/08/03 11:45:24;;;;;;;11.25;3.67;;;28.90;99.90;;;;;;4932630;28;20043;-84
2022/08/03 11:47:53;;;;;;;13.07;4.07;;;28.90;99.90;;;;;;4931768;28;20050;-84
2022/08/03 11:50:20;;;;;;;13.55;3.35;;;29.00;99.90;;;;;;4948253;28;20078;-84
2022/08/03 11:52:46;;;;;;;11.60;3.33;;;29.10;99.90;;;;;;4964636;28;20051;-83
2022/08/03 11:55:14;;;;;;;9.63;2.50;;;29.20;99.90;;;;;;4963512;28;20058;-85
2022/08/03 11:57:40;;;;;;;10.15;3.10;;;29.30;99.90;;;;;;4964934;28;20055;-84
2022/08/03 12:00:23;;;;;;;15.57;3.53;;;29.40;99.90;;;;;;4946738;28;20047;-84
2022/08/03 12:03:02;;;;;;;14.73;3.90;;;29.50;99.90;;;;;;4948254;28;20104;-84
2022/08/03 12:05:54;;;;;;;13.90;4.13;;;29.50;99.90;;;;;;4964355;28;20035;-84
2022/08/03 12:08:26;;;;;;;9.65;3.67;;;29.50;99.90;;;;;;4933409;28;20055;-84
2022/08/03 12:10:53;;;;;;;12.70;3.53;;;29.40;99.90;;;;;;4964239;28;20138;-83
2022/08/03 12:13:20;;;;;;;13.80;3.83;;;29.40;99.90;;;;;;4946897;28;20097;-84
2022/08/03 12:15:57;;;;;;;13.02;3.47;;;29.40;99.90;;;;;;4963998;28;20490;-84
2022/08/03 12:18:24;;;;;;;10.57;2.65;;;29.40;99.90;;;;;;4948042;28;20051;-87
2022/08/03 12:20:52;;;;;;;9.25;3.78;;;29.50;99.90;;;;;;4947639;28;20085;-84
2022/08/03 12:23:18;;;;;;;10.55;2.70;;;29.60;99.90;;;;;;4964116;28;20051;-85
2022/08/03 12:25:46;;;;;;;12.68;3.28;;;29.60;99.90;;;;;;4962316;28;20042;-85
2022/08/03 12:28:21;;;;;;;8.82;2.80;;;29.70;99.90;;;;;;4964244;28;20039;-85
2022/08/03 12:30:50;;;;;;;20.27;3.63;;;29.70;99.90;;;;;;4963083;28;20051;-85
2022/08/03 12:33:20;;;;;;;11.88;3.42;;;29.80;99.90;;;;;;4963546;28;20050;-85
2022/08/03 12:36:07;;;;;;;16.55;3.70;;;29.80;99.90;;;;;;4964301;28;20153;-84
2022/08/03 12:38:35;;;;;;;13.57;2.55;;;29.90;99.90;;;;;;4946852;28;20042;-84
2022/08/03 12:41:07;;;;;;;13.45;3.13;;;30.00;99.90;;;;;;4948693;28;20129;-85
2022/08/03 12:43:34;;;;;;;10.57;2.78;;;30.10;99.90;;;;;;4947775;28;20070;-85
2022/08/03 12:46:08;;;;;;;9.95;2.92;;;30.20;99.90;;;;;;4949021;28;20398;-89
2022/08/03 12:48:34;;;;;;;10.95;2.47;;;30.20;99.90;;;;;;4952909;28;20065;-89
2022/08/03 12:51:08;;;;;;;15.75;3.10;;;30.20;99.60;;;;;;4963668;28;20130;-86
2022/08/03 12:53:34;;;;;;;11.85;2.95;;;30.20;98.80;;;;;;4964695;28;20062;-86
2022/08/03 12:56:04;;;;;;;14.50;2.88;;;30.20;99.20;;;;;;4964797;28;20055;-85
2022/08/03 12:58:37;;;;;;;17.17;3.33;;;30.20;98.90;;;;;;4966108;28;20054;-84
2022/08/03 13:01:07;;;;;;;12.65;2.92;;;30.20;98.90;;;;;;4948294;28;20424;-83
2022/08/03 13:03:47;;;;;;;14.98;3.30;;;30.30;99.10;;;;;;4932560;28;20440;-83